createdAt,value
2022-08-20T00:02:16.714Z,8.57
2022-08-20T00:04:47.092Z,5.75
2022-08-20T00:07:17.541Z,8.45
2022-08-20T00:09:45.299Z,8.20
2022-08-20T00:12:17.594Z,9.02
2022-08-20T00:14:45.444Z,6.93
2022-08-20T00:17:15.612Z,7.55
2022-08-20T00:19:43.322Z,10.88
2022-08-20T00:22:13.642Z,11.65
2022-08-20T00:24:43.246Z,8.25
2022-08-20T00:27:10.636Z,11.48
2022-08-20T00:29:37.941Z,11.60
2022-08-20T00:32:08.135Z,7.05
2022-08-20T00:34:37.515Z,8.88
2022-08-20T00:37:05.491Z,8.13
2022-08-20T00:39:32.813Z,11.05
2022-08-20T00:42:00.214Z,8.13
2022-08-20T00:44:28.308Z,9.13
2022-08-20T00:46:55.716Z,9.57
2022-08-20T00:49:31.136Z,8.20
2022-08-20T00:52:20.331Z,9.95
2022-08-20T00:54:53.427Z,9.15
2022-08-20T00:57:29.885Z,7.90
2022-08-20T01:00:25.885Z,8.48
2022-08-20T01:02:54.038Z,6.40
2022-08-20T01:05:23.599Z,9.82
2022-08-20T01:07:58.536Z,11.23
2022-08-20T01:10:34.758Z,8.00
2022-08-20T01:13:10.007Z,7.07
2022-08-20T01:15:43.238Z,7.93
2022-08-20T01:18:15.024Z,13.85
2022-08-20T01:20:52.922Z,9.40
2022-08-20T01:23:38.255Z,8.82
2022-08-20T01:26:11.403Z,10.07
2022-08-20T01:28:59.029Z,9.30
2022-08-20T01:31:33.634Z,10.27
2022-08-20T01:34:03.455Z,7.47
2022-08-20T01:36:36.176Z,7.32
2022-08-20T01:39:07.857Z,7.40
2022-08-20T01:41:45.331Z,7.65
2022-08-20T01:44:16.921Z,6.95
2022-08-20T01:46:48.176Z,7.57
2022-08-20T01:49:26.587Z,10.43
2022-08-20T01:52:00.357Z,6.55
2022-08-20T01:54:28.223Z,9.93
2022-08-20T01:57:04.929Z,7.82
2022-08-20T01:59:34.770Z,5.55
2022-08-20T02:02:05.246Z,6.97
2022-08-20T02:04:34.891Z,5.68
2022-08-20T02:07:11.681Z,7.97
2022-08-20T02:09:42.285Z,6.15
2022-08-20T02:12:10.790Z,6.40
2022-08-20T02:14:47.361Z,9.68
2022-08-20T02:17:16.018Z,5.65
2022-08-20T02:19:55.553Z,7.60
2022-08-20T02:22:35.784Z,5.82
2022-08-20T02:25:09.023Z,6.57
2022-08-20T02:27:39.690Z,6.35
2022-08-20T02:30:27.458Z,6.07
2022-08-20T02:33:01.470Z,5.88
2022-08-20T02:35:31.010Z,6.38
2022-08-20T02:38:01.646Z,8.40
2022-08-20T02:40:31.455Z,8.32
2022-08-20T02:43:00.724Z,6.75
2022-08-20T02:45:31.974Z,8.95
2022-08-20T02:48:01.452Z,12.48
2022-08-20T02:50:28.845Z,5.95
2022-08-20T02:53:00.800Z,7.20
2022-08-20T02:55:30.401Z,6.60
2022-08-20T02:57:59.862Z,7.00
2022-08-20T03:00:32.301Z,6.30
2022-08-20T03:03:10.731Z,9.00
2022-08-20T03:05:42.703Z,7.75
2022-08-20T03:08:13.126Z,5.93
2022-08-20T03:10:43.124Z,11.70
2022-08-20T03:13:13.650Z,9.32
2022-08-20T03:15:45.144Z,7.70
2022-08-20T03:18:15.945Z,6.32
2022-08-20T03:20:46.511Z,6.80
2022-08-20T03:23:24.055Z,6.13
2022-08-20T03:25:51.295Z,8.10
2022-08-20T03:28:19.826Z,6.78
2022-08-20T03:30:48.511Z,11.15
2022-08-20T03:33:20.150Z,9.93
2022-08-20T03:35:48.507Z,7.75
2022-08-20T03:38:33.030Z,12.32
2022-08-20T03:41:01.977Z,11.88
2022-08-20T03:43:29.850Z,6.22
2022-08-20T03:45:57.832Z,12.38
2022-08-20T03:48:27.252Z,7.57
2022-08-20T03:50:57.632Z,9.23
2022-08-20T03:53:24.979Z,9.00
2022-08-20T03:55:56.413Z,8.07
2022-08-20T03:58:34.881Z,4.70
2022-08-20T04:01:07.343Z,9.13
2022-08-20T04:03:40.464Z,6.88
2022-08-20T04:06:07.755Z,6.35
2022-08-20T04:08:40.208Z,6.63
2022-08-20T04:11:11.273Z,6.00
2022-08-20T04:13:41.942Z,8.52
2022-08-20T04:16:13.402Z,9.45
2022-08-20T04:19:01.589Z,14.52
2022-08-20T04:21:33.228Z,7.05
2022-08-20T04:24:02.452Z,8.55
2022-08-20T04:26:30.341Z,9.75
2022-08-20T04:28:58.200Z,8.73
2022-08-20T04:31:25.702Z,6.53
2022-08-20T04:33:53.446Z,11.60
2022-08-20T04:36:23.393Z,8.35
2022-08-20T04:38:52.900Z,10.77
2022-08-20T04:41:24.445Z,9.27
2022-08-20T04:43:56.741Z,14.25
2022-08-20T04:46:27.453Z,11.57
2022-08-20T04:48:56.057Z,10.70
2022-08-20T04:51:24.261Z,6.80
2022-08-20T04:53:54.281Z,11.50
2022-08-20T04:56:31.419Z,9.45
2022-08-20T04:59:01.570Z,9.15
2022-08-20T05:01:32.092Z,12.07
2022-08-20T05:04:00.038Z,15.77
2022-08-20T05:06:31.011Z,7.82
2022-08-20T05:09:02.803Z,16.75
2022-08-20T05:11:35.924Z,10.10
2022-08-20T05:14:09.035Z,12.93
2022-08-20T05:16:41.022Z,9.30
2022-08-20T05:19:14.362Z,8.38
2022-08-20T05:21:43.952Z,11.95
2022-08-20T05:24:11.781Z,15.15
2022-08-20T05:26:39.570Z,7.88
2022-08-20T05:29:09.359Z,11.20
2022-08-20T05:31:38.413Z,10.98
2022-08-20T05:34:10.381Z,8.38
2022-08-20T05:36:45.479Z,9.70
2022-08-20T05:39:17.209Z,8.15
2022-08-20T05:41:50.815Z,11.05
2022-08-20T05:44:19.706Z,11.52
2022-08-20T05:46:50.080Z,13.00
2022-08-20T05:49:20.299Z,9.48
2022-08-20T05:51:51.876Z,10.25
2022-08-20T05:54:21.917Z,9.05
2022-08-20T05:56:49.399Z,8.43
2022-08-20T05:59:19.018Z,9.95
2022-08-20T06:01:48.271Z,10.15
2022-08-20T06:04:24.931Z,13.20
2022-08-20T06:07:12.994Z,11.10
2022-08-20T06:09:43.565Z,12.88
2022-08-20T06:12:11.689Z,12.35
2022-08-20T06:14:39.317Z,11.05
2022-08-20T06:17:09.973Z,9.20
2022-08-20T06:19:38.478Z,11.77
2022-08-20T06:22:18.558Z,15.65
2022-08-20T06:24:52.026Z,13.45
2022-08-20T06:27:20.547Z,10.70
2022-08-20T06:29:48.479Z,12.05
2022-08-20T06:32:16.277Z,11.13
2022-08-20T06:34:49.770Z,12.38
2022-08-20T06:37:27.661Z,13.82
2022-08-20T06:40:07.116Z,12.35
2022-08-20T06:42:35.342Z,10.77
2022-08-20T06:45:05.668Z,12.00
2022-08-20T06:47:36.307Z,22.13
2022-08-20T06:50:07.710Z,13.02
2022-08-20T06:52:51.715Z,21.65
2022-08-20T06:55:21.392Z,18.95
2022-08-20T06:58:04.086Z,13.90
2022-08-20T07:00:33.242Z,19.40
2022-08-20T07:03:01.545Z,15.63
2022-08-20T07:05:32.212Z,17.13
2022-08-20T07:08:00.916Z,18.77
2022-08-20T07:10:30.222Z,19.77
2022-08-20T07:13:00.157Z,15.85
2022-08-20T07:15:30.383Z,16.75
2022-08-20T07:18:01.721Z,15.93
2022-08-20T07:20:30.712Z,18.70
2022-08-20T07:22:59.239Z,20.27
2022-08-20T07:25:27.924Z,15.73
2022-08-20T07:28:01.810Z,20.55
2022-08-20T07:30:56.630Z,16.73
2022-08-20T07:33:29.799Z,21.80
2022-08-20T07:35:58.609Z,15.73
2022-08-20T07:38:27.454Z,20.83
2022-08-20T07:40:58.523Z,17.40
2022-08-20T07:43:26.006Z,17.60
2022-08-20T07:46:00.692Z,15.32
2022-08-20T07:48:31.999Z,29.48
2022-08-20T07:51:01.857Z,27.77
2022-08-20T07:53:32.390Z,30.33
2022-08-20T07:58:33.455Z,30.60
2022-08-20T08:01:01.328Z,33.25
2022-08-20T08:03:39.845Z,35.58
2022-08-20T08:06:29.347Z,30.70
2022-08-20T08:09:06.079Z,26.98
2022-08-20T08:11:37.815Z,30.83
2022-08-20T08:14:08.185Z,26.30
2022-08-20T08:16:39.238Z,28.35
2022-08-20T08:19:14.718Z,26.40
2022-08-20T08:21:43.635Z,24.38
2022-08-20T08:24:21.143Z,24.05
2022-08-20T08:26:50.199Z,20.00
2022-08-20T08:29:20.061Z,21.88
2022-08-20T08:31:49.584Z,19.75
2022-08-20T08:34:19.427Z,18.50
2022-08-20T08:36:50.960Z,14.00
2022-08-20T08:39:19.261Z,18.33
2022-08-20T08:41:50.033Z,17.45
2022-08-20T08:44:28.451Z,14.27
2022-08-20T08:47:18.140Z,11.73
2022-08-20T08:49:48.167Z,12.73
2022-08-20T08:52:22.926Z,13.52
2022-08-20T08:55:02.238Z,16.67
2022-08-20T08:57:31.970Z,14.52
2022-08-20T09:00:11.012Z,9.18
2022-08-20T09:02:53.178Z,10.52
2022-08-20T09:05:22.752Z,7.47
2022-08-20T09:07:53.164Z,9.15
2022-08-20T09:10:23.410Z,11.02
2022-08-20T09:12:53.656Z,9.00
2022-08-20T09:15:21.723Z,7.40
2022-08-20T09:17:49.657Z,11.73
2022-08-20T09:20:19.481Z,8.20
2022-08-20T09:25:20.284Z,8.52
2022-08-20T09:27:48.457Z,7.28
2022-08-20T09:30:20.489Z,7.75
2022-08-20T09:32:48.286Z,6.50
2022-08-20T09:35:16.056Z,8.00
2022-08-20T09:37:43.915Z,3.50
2022-08-20T09:40:12.892Z,4.53
2022-08-20T09:42:41.648Z,5.35
2022-08-20T09:45:11.214Z,4.13
2022-08-20T09:47:55.062Z,4.18
2022-08-20T09:50:30.924Z,4.68
2022-08-20T09:53:00.096Z,6.18
2022-08-20T09:55:37.633Z,6.10
2022-08-20T09:58:20.846Z,5.03
2022-08-20T10:00:48.479Z,3.20
2022-08-20T10:03:16.819Z,6.28
2022-08-20T10:05:44.252Z,4.20
2022-08-20T10:08:13.058Z,6.82
2022-08-20T10:10:40.391Z,6.95
2022-08-20T10:13:07.754Z,6.72
2022-08-20T10:15:41.948Z,8.32
2022-08-20T10:18:10.424Z,5.63
2022-08-20T10:20:40.692Z,8.88
2022-08-20T10:23:08.103Z,6.47
2022-08-20T10:25:35.832Z,3.55
2022-08-20T10:28:04.372Z,5.95
2022-08-20T10:30:31.751Z,4.72
2022-08-20T10:32:58.997Z,4.93
2022-08-20T10:35:26.681Z,4.10
2022-08-20T10:37:54.493Z,3.53
2022-08-20T10:40:21.965Z,5.95
2022-08-20T10:42:49.345Z,5.05
2022-08-20T10:45:16.727Z,3.25
2022-08-20T10:47:44.624Z,5.47
2022-08-20T10:50:15.337Z,6.95
2022-08-20T10:52:42.994Z,3.88
2022-08-20T10:55:13.490Z,7.40
2022-08-20T10:57:43.383Z,5.78
2022-08-20T11:00:15.744Z,4.93
2022-08-20T11:02:46.282Z,4.32
2022-08-20T11:05:15.615Z,4.32
2022-08-20T11:07:53.522Z,3.70
2022-08-20T11:10:27.236Z,6.45
2022-08-20T11:12:57.692Z,7.32
2022-08-20T11:15:25.740Z,4.80
2022-08-20T11:17:56.350Z,3.55
2022-08-20T11:20:27.750Z,3.95
2022-08-20T11:22:57.567Z,8.35
2022-08-20T11:25:25.630Z,3.40
2022-08-20T11:27:54.319Z,4.93
2022-08-20T11:30:32.515Z,4.68
2022-08-20T11:33:01.228Z,4.82
2022-08-20T11:35:49.986Z,7.03
2022-08-20T11:38:20.784Z,8.38
2022-08-20T11:40:48.131Z,11.43
2022-08-20T11:43:17.297Z,5.95
2022-08-20T11:45:51.360Z,4.50
2022-08-20T11:48:19.524Z,4.15
2022-08-20T11:50:47.449Z,5.65
2022-08-20T11:53:15.188Z,5.25
2022-08-20T11:55:43.564Z,6.13
2022-08-20T11:58:11.360Z,5.93
2022-08-20T12:00:38.808Z,5.30
2022-08-20T12:03:09.020Z,4.95
2022-08-20T12:05:42.315Z,7.38
2022-08-20T12:08:10.586Z,6.25
2022-08-20T12:11:01.179Z,4.30
2022-08-20T12:13:47.765Z,5.38
2022-08-20T12:16:21.069Z,4.95
2022-08-20T12:18:48.965Z,3.97
2022-08-20T12:21:20.238Z,4.18
2022-08-20T12:23:49.696Z,4.68
2022-08-20T12:26:17.868Z,5.57
2022-08-20T12:28:45.203Z,7.60
2022-08-20T12:31:12.557Z,5.28
2022-08-20T12:33:39.958Z,3.75
2022-08-20T12:36:10.424Z,5.47
2022-08-20T12:38:40.211Z,5.38
2022-08-20T12:41:10.033Z,4.43
2022-08-20T12:43:37.507Z,5.85
2022-08-20T12:46:07.839Z,7.20
2022-08-20T12:48:35.123Z,5.40
2022-08-20T12:51:02.849Z,3.85
2022-08-20T12:53:30.162Z,7.32
2022-08-20T12:55:57.415Z,2.92
2022-08-20T12:58:24.765Z,4.10
2022-08-20T13:00:52.236Z,5.55
2022-08-20T13:03:20.790Z,6.22
2022-08-20T13:05:50.145Z,3.35
2022-08-20T13:08:19.757Z,5.55
2022-08-20T13:10:49.603Z,5.20
2022-08-20T13:13:21.271Z,5.07
2022-08-20T13:15:50.576Z,7.65
2022-08-20T13:18:18.131Z,5.85
2022-08-20T13:20:48.962Z,6.68
2022-08-20T13:23:17.185Z,5.82
2022-08-20T13:25:44.526Z,5.30
2022-08-20T13:28:13.957Z,3.38
2022-08-20T13:30:41.541Z,2.38
2022-08-20T13:33:09.043Z,2.63
2022-08-20T13:35:36.365Z,2.38
2022-08-20T13:38:06.692Z,3.80
2022-08-20T13:40:36.210Z,3.22
2022-08-20T13:43:07.179Z,4.55
2022-08-20T13:45:39.310Z,4.25
2022-08-20T13:48:08.312Z,4.80
2022-08-20T13:50:42.253Z,2.03
2022-08-20T13:53:09.493Z,4.35
2022-08-20T13:55:38.607Z,3.38
2022-08-20T13:58:08.975Z,2.83
2022-08-20T14:00:37.034Z,4.25
2022-08-20T14:03:06.170Z,5.00
2022-08-20T14:05:34.467Z,1.95
2022-08-20T14:08:17.734Z,3.80
2022-08-20T14:10:46.073Z,2.42
2022-08-20T14:13:20.076Z,5.00
2022-08-20T14:15:47.446Z,4.05
2022-08-20T14:18:15.871Z,4.95
2022-08-20T14:20:46.353Z,3.42
2022-08-20T14:23:15.429Z,5.90
2022-08-20T14:25:46.592Z,2.97
2022-08-20T14:28:20.667Z,2.88
2022-08-20T14:30:52.816Z,3.50
2022-08-20T14:33:24.484Z,4.38
2022-08-20T14:35:52.841Z,3.65
2022-08-20T14:38:20.177Z,4.35
2022-08-20T14:40:48.175Z,2.85
2022-08-20T14:43:18.152Z,3.40
2022-08-20T14:45:47.797Z,2.88
2022-08-20T14:48:15.142Z,4.20
2022-08-20T14:50:43.133Z,3.00
2022-08-20T14:53:10.514Z,3.85
2022-08-20T14:55:38.530Z,5.18
2022-08-20T14:58:11.210Z,4.28
2022-08-20T15:00:39.650Z,5.13
2022-08-20T15:03:07.279Z,3.60
2022-08-20T15:05:40.405Z,5.93
2022-08-20T15:08:10.475Z,3.05
2022-08-20T15:10:39.099Z,3.30
2022-08-20T15:13:09.637Z,4.32
2022-08-20T15:15:37.833Z,4.90
2022-08-20T15:18:05.804Z,3.70
2022-08-20T15:20:41.081Z,4.70
2022-08-20T15:23:11.372Z,4.47
2022-08-20T15:25:38.655Z,4.95
2022-08-20T15:28:09.208Z,3.17
2022-08-20T15:30:41.073Z,3.50
2022-08-20T15:33:09.995Z,4.18
2022-08-20T15:35:37.526Z,5.05
2022-08-20T15:38:07.797Z,3.47
2022-08-20T15:40:38.193Z,4.18
2022-08-20T15:43:06.400Z,4.28
2022-08-20T15:45:35.418Z,3.45
2022-08-20T15:48:17.806Z,2.40
2022-08-20T15:50:57.005Z,3.88
2022-08-20T15:53:36.168Z,3.33
2022-08-20T15:56:28.429Z,3.35
2022-08-20T15:59:04.336Z,8.65
2022-08-20T16:02:17.085Z,4.80
2022-08-20T16:04:55.113Z,4.07
2022-08-20T16:07:37.466Z,4.03
2022-08-20T16:10:48.620Z,6.22
2022-08-20T16:13:33.720Z,2.53
2022-08-20T16:16:04.927Z,2.88
2022-08-20T16:18:38.598Z,1.77
2022-08-20T16:21:13.179Z,3.55
2022-08-20T16:23:43.261Z,4.63
2022-08-20T16:26:19.200Z,2.15
2022-08-20T16:28:59.145Z,2.38
2022-08-20T16:31:32.417Z,5.20
2022-08-20T16:36:48.578Z,4.15
2022-08-20T16:39:49.771Z,3.83
2022-08-20T16:42:21.664Z,2.70
2022-08-20T16:44:53.019Z,4.15
2022-08-20T16:47:33.384Z,2.38
2022-08-20T16:50:17.878Z,3.45
2022-08-20T16:52:47.350Z,3.28
2022-08-20T16:55:18.222Z,2.40
2022-08-20T16:57:48.745Z,3.13
2022-08-20T17:00:35.795Z,4.10
2022-08-20T17:03:33.459Z,2.03
2022-08-20T17:06:28.355Z,3.58
2022-08-20T17:08:55.768Z,4.20
2022-08-20T17:11:32.499Z,4.00
2022-08-20T17:14:19.504Z,2.95
2022-08-20T17:16:51.476Z,2.65
2022-08-20T17:19:28.049Z,4.28
2022-08-20T17:21:56.827Z,4.43
2022-08-20T17:24:28.930Z,3.42
2022-08-20T17:27:10.395Z,3.08
2022-08-20T17:29:50.562Z,3.83
2022-08-20T17:32:28.290Z,4.05
2022-08-20T17:34:58.070Z,2.72
2022-08-20T17:37:51.022Z,3.53
2022-08-20T17:40:38.461Z,5.38
2022-08-20T17:43:08.942Z,2.70
2022-08-20T17:45:45.675Z,3.20
2022-08-20T17:48:23.196Z,1.83
2022-08-20T17:50:52.421Z,3.47
2022-08-20T17:53:25.129Z,3.83
2022-08-20T17:56:00.709Z,4.65
2022-08-20T17:58:54.325Z,2.85
2022-08-20T18:01:26.430Z,3.00
2022-08-20T18:03:55.972Z,2.67
2022-08-20T18:06:56.912Z,3.85
2022-08-20T18:09:57.312Z,1.83
2022-08-20T18:12:48.763Z,4.45
2022-08-20T18:15:24.822Z,3.08
2022-08-20T18:18:15.526Z,4.97
2022-08-20T18:21:19.683Z,2.88
2022-08-20T18:24:12.545Z,5.47
2022-08-20T18:26:46.644Z,3.33
2022-08-20T18:29:41.545Z,3.13
2022-08-20T18:32:32.230Z,4.95
2022-08-20T18:35:22.696Z,2.15
2022-08-20T18:37:50.071Z,3.33
2022-08-20T18:40:33.268Z,3.95
2022-08-20T18:43:15.945Z,5.57
2022-08-20T18:45:45.409Z,4.25
2022-08-20T18:48:22.183Z,3.08
2022-08-20T18:50:55.573Z,2.92
2022-08-20T18:56:08.592Z,3.25
2022-08-20T18:58:37.981Z,3.78
2022-08-20T19:01:14.168Z,3.95
2022-08-20T19:03:49.364Z,6.25
2022-08-20T19:06:24.922Z,1.98
2022-08-20T19:09:15.936Z,4.65
2022-08-20T19:12:02.468Z,3.13
2022-08-20T19:14:56.571Z,4.22
2022-08-20T19:17:42.790Z,3.95
2022-08-20T19:20:17.490Z,2.10
2022-08-20T19:22:47.212Z,3.70
2022-08-20T19:25:28.453Z,3.08
2022-08-20T19:28:05.386Z,5.32
2022-08-20T19:30:37.888Z,3.65
2022-08-20T19:33:07.085Z,2.67
2022-08-20T19:35:37.707Z,4.50
2022-08-20T19:38:07.745Z,2.35
2022-08-20T19:40:40.048Z,2.30
2022-08-20T19:43:15.658Z,3.08
2022-08-20T19:45:51.819Z,4.53
2022-08-20T19:48:38.733Z,5.38
2022-08-20T19:51:36.757Z,5.38
2022-08-20T19:54:22.279Z,3.60
2022-08-20T19:56:51.786Z,4.85
2022-08-20T19:59:21.237Z,4.78
2022-08-20T20:01:58.576Z,6.40
2022-08-20T20:04:29.758Z,4.60
2022-08-20T20:06:58.516Z,3.92
2022-08-20T20:09:29.055Z,6.32
2022-08-20T20:12:02.807Z,5.28
2022-08-20T20:14:41.005Z,3.45
2022-08-20T20:17:14.558Z,2.90
2022-08-20T20:20:00.048Z,6.28
2022-08-20T20:22:31.177Z,2.67
2022-08-20T20:25:22.558Z,4.88
2022-08-20T20:27:54.580Z,8.40
2022-08-20T20:30:31.179Z,4.20
2022-08-20T20:33:01.229Z,3.30
2022-08-20T20:35:35.379Z,3.10
2022-08-20T20:38:06.822Z,5.38
2022-08-20T20:40:48.120Z,5.72
2022-08-20T20:43:37.674Z,3.85
2022-08-20T20:46:21.094Z,3.00
2022-08-20T20:48:55.235Z,2.38
2022-08-20T20:51:29.846Z,3.28
2022-08-20T20:54:00.602Z,5.63
2022-08-20T20:56:34.823Z,4.00
2022-08-20T20:59:06.627Z,5.32
2022-08-20T21:01:48.962Z,5.03
2022-08-20T21:04:23.281Z,3.80
2022-08-20T21:06:59.685Z,4.55
2022-08-20T21:09:27.327Z,7.80
2022-08-20T21:11:57.259Z,6.75
2022-08-20T21:14:24.457Z,5.30
2022-08-20T21:16:57.403Z,3.88
2022-08-20T21:19:27.506Z,2.63
2022-08-20T21:21:55.664Z,5.05
2022-08-20T21:24:26.261Z,3.55
2022-08-20T21:26:58.407Z,3.05
2022-08-20T21:29:32.636Z,3.88
2022-08-20T21:32:00.921Z,3.45
2022-08-20T21:34:30.726Z,3.92
2022-08-20T21:37:00.575Z,6.13
2022-08-20T21:39:33.664Z,5.32
2022-08-20T21:42:05.820Z,6.45
2022-08-20T21:44:53.428Z,3.47
2022-08-20T21:47:24.594Z,3.90
2022-08-20T21:49:52.436Z,3.20
2022-08-20T21:52:19.829Z,4.25
2022-08-20T21:54:49.580Z,3.47
2022-08-20T21:57:26.059Z,5.07
2022-08-20T21:59:54.080Z,6.13
2022-08-20T22:02:22.116Z,8.38
2022-08-20T22:04:53.734Z,4.35
2022-08-20T22:07:26.399Z,4.57
2022-08-20T22:09:53.661Z,6.72
2022-08-20T22:12:27.058Z,3.50
2022-08-20T22:17:25.155Z,5.45
2022-08-20T22:19:54.553Z,4.50
2022-08-20T22:22:22.784Z,9.70
2022-08-20T22:24:50.112Z,5.40
2022-08-20T22:27:17.354Z,3.00
2022-08-20T22:29:46.869Z,3.50
2022-08-20T22:32:14.690Z,3.13
2022-08-20T22:34:42.432Z,3.70
2022-08-20T22:37:16.325Z,4.45
2022-08-20T22:39:44.307Z,7.05
2022-08-20T22:42:11.729Z,3.47
2022-08-20T22:44:39.096Z,3.95
2022-08-20T22:47:08.075Z,3.28
2022-08-20T22:49:39.931Z,4.03
2022-08-20T22:52:08.968Z,6.40
2022-08-20T22:54:36.684Z,6.30
2022-08-20T22:57:05.290Z,5.97
2022-08-20T22:59:41.439Z,5.35
2022-08-20T23:02:19.340Z,2.95
2022-08-20T23:04:48.815Z,6.60
2022-08-20T23:07:19.235Z,6.93
2022-08-20T23:09:48.908Z,7.93
2022-08-20T23:12:19.119Z,6.53
2022-08-20T23:14:46.423Z,4.18
2022-08-20T23:17:19.073Z,4.45
2022-08-20T23:19:47.897Z,6.10
2022-08-20T23:22:17.990Z,6.80
2022-08-20T23:24:46.007Z,5.22
2022-08-20T23:27:17.293Z,3.72
2022-08-20T23:29:45.085Z,5.72
2022-08-20T23:32:15.175Z,5.70
2022-08-20T23:34:44.721Z,7.20
2022-08-20T23:37:18.851Z,9.05
2022-08-20T23:39:46.565Z,4.22
2022-08-20T23:42:15.195Z,5.35
2022-08-20T23:44:42.601Z,6.75
2022-08-20T23:47:15.390Z,6.50
2022-08-20T23:49:43.250Z,5.85
2022-08-20T23:52:10.510Z,4.50
2022-08-20T23:54:39.877Z,5.13
2022-08-20T23:57:08.208Z,5.13
2022-08-20T23:59:36.075Z,4.88
